createdAt,value
2023-04-09T00:05:49.105Z,7.13
2023-04-09T00:15:51.666Z,6.86
2023-04-09T00:25:53.950Z,6.39
2023-04-09T00:35:56.556Z,5.93
2023-04-09T00:46:00.276Z,5.54
2023-04-09T00:56:03.867Z,5.22
2023-04-09T01:06:16.651Z,4.98
2023-04-09T01:16:22.601Z,4.66
2023-04-09T01:26:54.889Z,4.37
2023-04-09T01:37:01.365Z,4.16
2023-04-09T01:47:04.491Z,3.95
2023-04-09T01:57:06.788Z,3.74
2023-04-09T02:07:26.258Z,3.65
2023-04-09T02:17:28.499Z,3.52
2023-04-09T02:27:30.880Z,3.35
2023-04-09T02:37:33.251Z,3.20
2023-04-09T02:47:35.654Z,3.32
2023-04-09T02:57:37.993Z,3.17
2023-04-09T03:07:40.178Z,2.98
2023-04-09T03:17:42.462Z,2.85
2023-04-09T03:27:44.858Z,2.79
2023-04-09T03:37:47.572Z,2.63
2023-04-09T03:47:49.954Z,2.41
2023-04-09T03:57:52.279Z,2.34
2023-04-09T04:07:55.418Z,2.45
2023-04-09T04:17:57.672Z,2.54
2023-04-09T04:28:00.111Z,2.39
2023-04-09T04:38:02.386Z,2.13
2023-04-09T04:48:04.911Z,1.89
2023-04-09T04:58:07.264Z,1.75
2023-04-09T05:08:09.592Z,1.64
2023-04-09T05:18:11.945Z,1.55
2023-04-09T05:28:14.475Z,1.54
2023-04-09T05:38:16.875Z,1.64
2023-04-09T05:48:19.942Z,1.82
2023-04-09T05:58:22.380Z,2.18
2023-04-09T06:08:24.874Z,2.67
2023-04-09T06:18:27.686Z,3.17
2023-04-09T06:28:30.193Z,3.68
2023-04-09T06:38:32.860Z,4.14
2023-04-09T06:48:35.492Z,4.52
2023-04-09T06:58:37.821Z,4.89
2023-04-09T07:08:40.234Z,5.43
2023-04-09T07:18:42.980Z,6.27
2023-04-09T07:28:45.799Z,6.89
2023-04-09T07:38:49.166Z,6.88
2023-04-09T07:48:51.856Z,6.90
2023-04-09T07:58:55.070Z,7.20
2023-04-09T08:08:57.925Z,7.63
2023-04-09T08:19:00.739Z,8.03
2023-04-09T08:29:03.175Z,8.42
2023-04-09T08:39:05.629Z,8.87
2023-04-09T08:49:10.000Z,9.23
2023-04-09T08:59:17.593Z,9.47
2023-04-09T09:09:19.954Z,9.94
2023-04-09T09:19:24.972Z,10.23
2023-04-09T09:29:28.609Z,10.55
2023-04-09T09:39:47.018Z,11.03
2023-04-09T09:49:53.052Z,11.36
2023-04-09T10:00:02.335Z,11.59
2023-04-09T10:10:07.925Z,12.09
2023-04-09T10:20:27.466Z,12.37
2023-04-09T10:30:34.095Z,12.83
2023-04-09T10:40:48.088Z,13.06
2023-04-09T10:50:52.987Z,13.36
2023-04-09T11:00:56.173Z,13.61
2023-04-09T11:11:02.220Z,14.11
2023-04-09T11:21:04.928Z,14.30
2023-04-09T11:31:07.634Z,14.74
2023-04-09T11:41:13.397Z,14.97
2023-04-09T11:51:16.154Z,15.30
2023-04-09T12:01:18.872Z,15.54
2023-04-09T12:11:21.354Z,15.63
2023-04-09T12:21:27.602Z,16.06
2023-04-09T12:31:30.301Z,16.39
2023-04-09T12:41:32.788Z,16.85
2023-04-09T12:51:35.531Z,17.33
2023-04-09T13:01:38.878Z,17.61
2023-04-09T13:11:42.771Z,17.80
2023-04-09T13:21:45.646Z,18.10
2023-04-09T13:31:48.278Z,18.70
2023-04-09T13:41:51.489Z,19.21
2023-04-09T13:51:54.171Z,19.34
2023-04-09T14:01:57.202Z,19.52
2023-04-09T14:11:59.931Z,19.84
2023-04-09T14:22:02.678Z,19.77
2023-04-09T14:32:05.191Z,19.64
2023-04-09T14:42:07.772Z,19.99
2023-04-09T14:52:10.353Z,19.82
2023-04-09T15:02:13.238Z,19.19
2023-04-09T15:12:15.939Z,18.69
2023-04-09T15:22:18.483Z,18.59
2023-04-09T15:32:21.884Z,18.63
2023-04-09T15:42:24.289Z,18.62
2023-04-09T15:52:27.370Z,18.37
2023-04-09T16:02:30.239Z,17.86
2023-04-09T16:12:32.752Z,17.49
2023-04-09T16:22:35.600Z,17.59
2023-04-09T16:32:38.280Z,17.36
2023-04-09T16:42:41.322Z,16.52
2023-04-09T16:52:44.639Z,16.05
2023-04-09T17:02:47.256Z,15.50
2023-04-09T17:12:50.969Z,15.65
2023-04-09T17:22:53.748Z,15.51
2023-04-09T17:32:56.492Z,14.72
2023-04-09T17:42:59.034Z,13.79
2023-04-09T17:53:02.093Z,12.98
2023-04-09T18:03:05.036Z,12.20
2023-04-09T18:13:07.854Z,11.58
2023-04-09T18:23:10.628Z,11.14
2023-04-09T18:33:14.837Z,10.49
2023-04-09T18:43:17.695Z,10.05
2023-04-09T18:53:20.432Z,9.55
2023-04-09T19:03:24.193Z,8.97
2023-04-09T19:13:26.921Z,8.59
2023-04-09T19:23:30.163Z,8.24
2023-04-09T19:33:32.721Z,7.79
2023-04-09T19:43:36.023Z,7.40
2023-04-09T19:53:40.449Z,7.05
2023-04-09T20:03:43.127Z,6.64
2023-04-09T20:13:47.437Z,6.24
2023-04-09T20:23:49.689Z,5.84
2023-04-09T20:33:51.982Z,5.48
2023-04-09T20:43:54.465Z,5.18
2023-04-09T20:53:58.388Z,4.91
2023-04-09T21:04:01.054Z,4.65
2023-04-09T21:14:04.440Z,4.42
2023-04-09T21:24:06.913Z,4.16
2023-04-09T21:34:09.800Z,3.98
2023-04-09T21:44:12.542Z,3.81
2023-04-09T21:54:15.262Z,3.68
2023-04-09T22:04:17.927Z,3.63
2023-04-09T22:14:22.204Z,3.66
2023-04-09T22:24:27.340Z,3.58
2023-04-09T22:34:29.745Z,3.36
2023-04-09T22:44:32.349Z,3.15
2023-04-09T22:54:34.895Z,2.96
2023-04-09T23:04:37.544Z,2.81
2023-04-09T23:14:39.857Z,2.64
2023-04-09T23:24:42.130Z,2.55
2023-04-09T23:34:44.473Z,2.41
2023-04-09T23:44:47.012Z,2.29
2023-04-09T23:54:53.641Z,2.19
